Time;durP1;ratioP1;P1;durP2;ratioP2;P2;SDS_P1;SDS_P2;PMS_P1;PMS_P2;Temp;Humidity;BMP_temperature;BMP_pressure;BME280_temperature;BME280_humidity;BME280_pressure;Samples;Min_cycle;Max_cycle;Signal;HPM_P1;HPM_P2
2022/08/27 00:01:07;;;;;;;;;;;;;;;14.90;100.00;-25486.44;5053354;28;19917;-83
2022/08/27 00:03:36;;;;;;;;;;;;;;;14.92;100.00;-25486.88;5053730;28;19928;-84
2022/08/27 00:06:02;;;;;;;;;;;;;;;14.86;100.00;-25485.13;5052362;28;19921;-84
2022/08/27 00:08:29;;;;;;;;;;;;;;;14.84;100.00;-25484.69;5053285;28;20007;-84
2022/08/27 00:10:55;;;;;;;;;;;;;;;14.81;100.00;-25483.69;5053429;28;20249;-83
2022/08/27 00:13:35;;;;;;;;;;;;;;;14.80;100.00;-25483.53;5053618;28;19924;-83
2022/08/27 00:16:00;;;;;;;;;;;;;;;14.78;100.00;-25482.81;5053615;28;20357;-82
2022/08/27 00:18:25;;;;;;;;;;;;;;;14.71;100.00;-25480.91;5053657;28;20016;-84
2022/08/27 00:20:51;;;;;;;;;;;;;;;14.75;100.00;-25481.94;5053889;28;19912;-84
2022/08/27 00:23:24;;;;;;;;;;;;;;;14.75;100.00;-25481.94;5053473;28;20050;-81
2022/08/27 00:25:49;;;;;;;;;;;;;;;14.68;100.00;-25480.19;5053648;28;20322;-81
2022/08/27 00:28:15;;;;;;;;;;;;;;;14.65;100.00;-25479.31;5053328;28;19916;-82
2022/08/27 00:30:41;;;;;;;;;;;;;;;14.64;100.00;-25478.88;5051422;28;19916;-76
2022/08/27 00:33:07;;;;;;;;;;;;;;;14.64;100.00;-25479.00;5050059;28;19928;-78
2022/08/27 00:35:32;;;;;;;;;;;;;;;14.62;100.00;-25478.44;5051494;28;19920;-75
2022/08/27 00:37:58;;;;;;;;;;;;;;;14.62;100.00;-25478.44;5051241;28;19917;-79
2022/08/27 00:40:24;;;;;;;;;;;;;;;14.63;100.00;-25478.56;5051138;28;20102;-75
2022/08/27 00:42:50;;;;;;;;;;;;;;;14.57;100.00;-25476.97;5050930;28;19924;-75
2022/08/27 00:45:17;;;;;;;;;;;;;;;14.63;100.00;-25478.72;5051337;28;19916;-75
2022/08/27 00:47:47;;;;;;;;;;;;;;;14.65;100.00;-25479.16;5050715;28;19925;-76
2022/08/27 00:50:15;;;;;;;;;;;;;;;14.65;100.00;-25479.16;5050659;28;19920;-78
2022/08/27 00:52:47;;;;;;;;;;;;;;;14.64;100.00;-25478.88;5051302;28;20289;-78
2022/08/27 00:55:17;;;;;;;;;;;;;;;14.59;100.00;-25477.56;5051302;28;19921;-82
2022/08/27 00:57:44;;;;;;;;;;;;;;;14.55;100.00;-25476.53;5051925;28;20015;-77
2022/08/27 01:00:12;;;;;;;;;;;;;;;14.54;100.00;-25476.25;5051853;28;19977;-76
2022/08/27 01:02:37;;;;;;;;;;;;;;;14.50;100.00;-25474.94;5050905;28;19924;-79
2022/08/27 01:05:05;;;;;;;;;;;;;;;14.39;100.00;-25471.72;5051699;28;19917;-82
2022/08/27 01:07:32;;;;;;;;;;;;;;;14.40;100.00;-25472.03;5051719;28;20022;-78
2022/08/27 01:09:59;;;;;;;;;;;;;;;14.45;100.00;-25473.47;5050443;28;19912;-77
2022/08/27 01:12:27;;;;;;;;;;;;;;;14.41;100.00;-25472.31;5050619;28;20000;-77
2022/08/27 01:14:53;;;;;;;;;;;;;;;14.27;100.00;-25468.53;5048975;28;19924;-77
2022/08/27 01:17:18;;;;;;;;;;;;;;;14.30;100.00;-25469.25;5050462;28;19916;-76
2022/08/27 01:19:48;;;;;;;;;;;;;;;14.30;100.00;-25469.25;5050363;28;20062;-76
2022/08/27 01:22:30;;;;;;;;;;;;;;;14.28;100.00;-25468.81;5050177;28;19917;-79
2022/08/27 01:24:57;;;;;;;;;;;;;;;14.28;100.00;-25468.66;5050061;28;19924;-81
2022/08/27 01:27:24;;;;;;;;;;;;;;;14.27;100.00;-25468.38;5050613;28;19920;-78
2022/08/27 01:29:49;;;;;;;;;;;;;;;14.27;100.00;-25468.38;5050317;28;19917;-76
2022/08/27 01:32:34;;;;;;;;;;;;;;;14.26;100.00;-25468.22;5051249;28;19943;-82
2022/08/27 01:35:00;;;;;;;;;;;;;;;14.24;100.00;-25467.66;5051745;28;19976;-77
2022/08/27 01:37:26;;;;;;;;;;;;;;;14.21;100.00;-25466.78;5051414;28;19913;-76
2022/08/27 01:39:52;;;;;;;;;;;;;;;14.18;100.00;-25465.91;5050292;28;19921;-76
2022/08/27 01:42:19;;;;;;;;;;;;;;;14.13;100.00;-25464.59;5050083;28;19913;-77
2022/08/27 01:44:49;;;;;;;;;;;;;;;14.14;100.00;-25464.88;5050387;28;19924;-75
2022/08/27 01:47:15;;;;;;;;;;;;;;;14.17;100.00;-25465.59;5050197;28;19956;-77
2022/08/27 01:49:41;;;;;;;;;;;;;;;14.14;100.00;-25464.72;5050663;28;19917;-76
2022/08/27 01:52:06;;;;;;;;;;;;;;;14.17;100.00;-25465.59;5049799;28;19971;-76
2022/08/27 01:54:32;;;;;;;;;;;;;;;14.19;100.00;-25466.19;5049563;28;19967;-76
2022/08/27 01:56:58;;;;;;;;;;;;;;;14.18;100.00;-25466.03;5050411;28;19920;-77
2022/08/27 01:59:24;;;;;;;;;;;;;;;14.22;100.00;-25467.06;5050870;28;19924;-75
2022/08/27 02:01:50;;;;;;;;;;;;;;;14.22;100.00;-25467.06;5050340;28;19917;-76
2022/08/27 02:04:18;;;;;;;;;;;;;;;14.16;100.00;-25465.31;5050789;28;20408;-76
2022/08/27 02:06:43;;;;;;;;;;;;;;;14.13;100.00;-25464.44;5050960;28;19924;-78
2022/08/27 02:09:08;;;;;;;;;;;;;;;14.08;100.00;-25462.97;5054609;28;19916;-82
2022/08/27 02:11:33;;;;;;;;;;;;;;;14.03;100.00;-25461.66;5050471;28;19917;-83
2022/08/27 02:14:00;;;;;;;;;;;;;;;14.03;100.00;-25461.66;5051914;28;19916;-84
2022/08/27 02:16:25;;;;;;;;;;;;;;;14.08;100.00;-25462.97;5050130;28;19921;-81
2022/08/27 02:18:53;;;;;;;;;;;;;;;14.09;100.00;-25463.28;5051906;28;19963;-83
2022/08/27 02:21:18;;;;;;;;;;;;;;;14.09;100.00;-25463.41;5050253;28;19955;-81
2022/08/27 02:23:44;;;;;;;;;;;;;;;14.08;100.00;-25462.97;5049854;28;19917;-81
2022/08/27 02:26:09;;;;;;;;;;;;;;;14.03;100.00;-25461.66;5050394;28;19917;-77
2022/08/27 02:28:34;;;;;;;;;;;;;;;14.03;100.00;-25461.53;5052932;28;19956;-79
2022/08/27 02:31:00;;;;;;;;;;;;;;;14.07;100.00;-25462.69;5054722;28;19913;-82
2022/08/27 02:33:30;;;;;;;;;;;;;;;14.04;100.00;-25461.81;5054121;28;19921;-81
2022/08/27 02:35:55;;;;;;;;;;;;;;;14.00;100.00;-25460.94;5053925;28;19948;-82
2022/08/27 02:38:20;;;;;;;;;;;;;;;13.97;100.00;-25460.06;5037314;28;20019;-77
2022/08/27 02:40:46;;;;;;;;;;;;;;;13.97;100.00;-25460.06;5053830;28;20003;-76
2022/08/27 02:43:11;;;;;;;;;;;;;;;13.96;100.00;-25459.78;5053486;28;19916;-82
2022/08/27 02:45:36;;;;;;;;;;;;;;;13.98;100.00;-25460.34;5054497;28;19917;-83
2022/08/27 02:48:04;;;;;;;;;;;;;;;13.97;100.00;-25459.91;5053302;28;19921;-76
2022/08/27 02:50:29;;;;;;;;;;;;;;;13.97;100.00;-25460.06;5053581;28;20356;-76
2022/08/27 02:52:54;;;;;;;;;;;;;;;13.97;100.00;-25460.06;5053683;28;19924;-78
2022/08/27 02:55:21;;;;;;;;;;;;;;;13.98;100.00;-25460.22;5053996;28;20280;-83
2022/08/27 02:57:47;;;;;;;;;;;;;;;13.98;100.00;-25460.34;5053727;28;19959;-81
2022/08/27 03:00:15;;;;;;;;;;;;;;;13.98;100.00;-25460.34;5053434;28;19921;-83
2022/08/27 03:02:40;;;;;;;;;;;;;;;13.99;100.00;-25460.66;5053233;28;20010;-76
2022/08/27 03:05:06;;;;;;;;;;;;;;;14.01;100.00;-25461.09;5052344;28;20374;-75
2022/08/27 03:07:31;;;;;;;;;;;;;;;13.99;100.00;-25460.66;5052781;28;19916;-83
2022/08/27 03:09:57;;;;;;;;;;;;;;;13.98;100.00;-25460.22;5052889;28;19963;-76
2022/08/27 03:12:23;;;;;;;;;;;;;;;13.97;100.00;-25460.06;5035447;28;19925;-75
2022/08/27 03:14:48;;;;;;;;;;;;;;;13.97;100.00;-25460.06;5052719;28;19920;-77
2022/08/27 03:19:57;;;;;;;;;;;;;;;13.93;100.00;-25458.91;5053641;28;19923;-82
2022/08/27 03:22:24;;;;;;;;;;;;;;;13.94;100.00;-25459.03;5052550;28;19917;-76
2022/08/27 03:24:49;;;;;;;;;;;;;;;13.93;100.00;-25458.75;5052106;28;19944;-78
2022/08/27 03:27:14;;;;;;;;;;;;;;;13.90;100.00;-25458.03;5052334;28;20361;-76
2022/08/27 03:29:40;;;;;;;;;;;;;;;13.88;100.00;-25457.28;5052098;28;20277;-75
2022/08/27 03:32:05;;;;;;;;;;;;;;;13.89;100.00;-25457.59;5051599;28;19924;-76
2022/08/27 03:34:31;;;;;;;;;;;;;;;13.91;100.00;-25458.31;5052319;28;20281;-75
2022/08/27 03:36:56;;;;;;;;;;;;;;;13.87;100.00;-25457.16;5052027;28;19917;-75
2022/08/27 03:39:22;;;;;;;;;;;;;;;13.85;100.00;-25456.56;5051577;28;19920;-75
2022/08/27 03:41:47;;;;;;;;;;;;;;;13.81;100.00;-25455.53;5055104;28;19917;-76
2022/08/27 03:44:13;;;;;;;;;;;;;;;13.91;100.00;-25458.31;5051948;28;20246;-81
2022/08/27 03:46:38;;;;;;;;;;;;;;;13.88;100.00;-25457.44;5054473;28;19917;-75
2022/08/27 03:49:04;;;;;;;;;;;;;;;13.83;100.00;-25455.97;5051845;28;20401;-75
2022/08/27 03:51:29;;;;;;;;;;;;;;;13.76;100.00;-25453.94;5051498;28;19924;-76
2022/08/27 03:53:54;;;;;;;;;;;;;;;13.72;100.00;-25452.91;5050913;28;20623;-77
2022/08/27 03:56:20;;;;;;;;;;;;;;;13.68;100.00;-25451.59;5054057;28;19971;-83
2022/08/27 03:58:45;;;;;;;;;;;;;;;13.67;100.00;-25451.47;5054995;28;19971;-81
2022/08/27 04:01:10;;;;;;;;;;;;;;;13.66;100.00;-25451.16;5052168;28;19970;-79
2022/08/27 04:03:35;;;;;;;;;;;;;;;13.64;100.00;-25450.72;5052468;28;19948;-76
2022/08/27 04:06:02;;;;;;;;;;;;;;;13.59;100.00;-25449.13;5051067;28;20349;-75
2022/08/27 04:08:28;;;;;;;;;;;;;;;13.59;100.00;-25449.28;5051526;28;20365;-77
2022/08/27 04:10:54;;;;;;;;;;;;;;;13.60;100.00;-25449.41;5051050;28;19920;-77
2022/08/27 04:13:20;;;;;;;;;;;;;;;13.59;100.00;-25449.28;5051604;28;19917;-76
2022/08/27 04:15:47;;;;;;;;;;;;;;;13.57;100.00;-25448.53;5050983;28;19942;-76
2022/08/27 04:18:15;;;;;;;;;;;;;;;13.53;100.00;-25447.53;5054325;28;20347;-77
2022/08/27 04:20:41;;;;;;;;;;;;;;;13.52;100.00;-25447.09;5051544;28;20349;-74
2022/08/27 04:23:08;;;;;;;;;;;;;;;13.51;100.00;-25446.94;5051482;28;19919;-75
2022/08/27 04:25:33;;;;;;;;;;;;;;;13.49;100.00;-25446.22;5052291;28;20361;-78
2022/08/27 04:27:58;;;;;;;;;;;;;;;13.44;100.00;-25444.91;5051226;28;19970;-76
2022/08/27 04:30:24;;;;;;;;;;;;;;;13.44;100.00;-25444.91;5051805;28;19944;-76
2022/08/27 04:32:49;;;;;;;;;;;;;;;13.45;100.00;-25445.19;5051149;28;19927;-75
2022/08/27 04:35:15;;;;;;;;;;;;;;;13.41;100.00;-25444.16;5051097;28;19920;-75
2022/08/27 04:37:42;;;;;;;;;;;;;;;13.39;100.00;-25443.44;5053949;28;20183;-75
2022/08/27 04:40:08;;;;;;;;;;;;;;;13.31;100.00;-25441.22;5051945;28;19917;-75
2022/08/27 04:42:34;;;;;;;;;;;;;;;13.37;100.00;-25442.84;5051407;28;20030;-75
2022/08/27 04:44:59;;;;;;;;;;;;;;;13.39;100.00;-25443.44;5051226;28;19947;-76
2022/08/27 04:47:24;;;;;;;;;;;;;;;13.39;100.00;-25443.44;5052437;28;19924;-80
2022/08/27 04:49:49;;;;;;;;;;;;;;;13.39;100.00;-25443.44;5053611;28;19963;-79
2022/08/27 04:52:15;;;;;;;;;;;;;;;13.37;100.00;-25443.00;5050970;28;19928;-75
2022/08/27 04:54:40;;;;;;;;;;;;;;;13.38;100.00;-25443.16;5052162;28;20349;-82
2022/08/27 04:57:06;;;;;;;;;;;;;;;13.44;100.00;-25444.91;5054403;28;19924;-83
2022/08/27 04:59:33;;;;;;;;;;;;;;;13.42;100.00;-25444.31;5052823;28;19917;-77
2022/08/27 05:01:59;;;;;;;;;;;;;;;13.41;100.00;-25444.16;5050696;28;19924;-75
2022/08/27 05:04:28;;;;;;;;;;;;;;;13.51;100.00;-25446.94;5050687;28;19924;-80
2022/08/27 05:06:53;;;;;;;;;;;;;;;13.63;100.00;-25450.44;5051867;28;19991;-79
2022/08/27 05:09:18;;;;;;;;;;;;;;;13.82;100.00;-25455.84;5052313;28;20432;-82
2022/08/27 05:11:45;;;;;;;;;;;;;;;13.92;100.00;-25458.59;5052516;28;19924;-80
2022/08/27 05:14:14;;;;;;;;;;;;;;;14.13;100.00;-25464.44;5052204;28;20023;-81
2022/08/27 05:16:40;;;;;;;;;;;;;;;15.21;100.00;-25495.03;5052484;28;19916;-81
2022/08/27 05:19:07;;;;;;;;;;;;;;;16.21;100.00;-25523.25;5051926;28;20296;-76
2022/08/27 05:21:33;;;;;;;;;;;;;;;16.26;100.00;-25524.84;5052614;28;20196;-83
2022/08/27 05:24:03;;;;;;;;;;;;;;;16.08;100.00;-25519.59;5052652;28;19916;-77
2022/08/27 05:26:29;;;;;;;;;;;;;;;16.14;100.00;-25521.50;5051575;28;19924;-84
2022/08/27 05:28:54;;;;;;;;;;;;;;;16.36;100.00;-25527.59;5052180;28;20074;-81
2022/08/27 05:31:20;;;;;;;;;;;;;;;16.81;100.00;-25540.38;5052665;28;19964;-83
2022/08/27 05:33:49;;;;;;;;;;;;;;;17.96;100.00;-25572.56;5051837;28;19920;-84
2022/08/27 05:36:16;;;;;;;;;;;;;;;19.35;100.00;-25611.75;5051577;28;19981;-83
2022/08/27 05:38:42;;;;;;;;;;;;;;;20.17;100.00;-20991.19;5050036;28;19917;-76
2022/08/27 05:41:09;;;;;;;;;;;;;;;20.86;100.00;4317.78;5049339;28;20290;-77
2022/08/27 05:43:41;;;;;;;;;;;;;;;21.37;100.00;49758.06;5049939;28;20253;-82
2022/08/27 05:46:08;;;;;;;;;;;;;;;22.22;100.00;120274.09;5050880;28;19916;-80
2022/08/27 05:48:35;;;;;;;;;;;;;;;22.80;100.00;148450.84;5051455;28;20086;-80
2022/08/27 05:51:08;;;;;;;;;;;;;;;23.07;100.00;148518.88;5049171;28;20443;-74
2022/08/27 05:53:34;;;;;;;;;;;;;;;22.79;100.00;148448.25;5049105;28;19917;-73
2022/08/27 05:55:59;;;;;;;;;;;;;;;21.80;100.00;148201.94;5049586;28;19921;-73
2022/08/27 06:01:09;;;;;;;;;;;;;;;19.31;100.00;147581.69;5050319;28;19924;-74
2022/08/27 06:03:35;;;;;;;;;;;;;;;19.03;100.00;147511.25;5051654;28;19920;-73
2022/08/27 06:06:01;;;;;;;;;;;;;;;18.43;100.00;147362.81;5054309;28;19923;-72
2022/08/27 06:08:26;;;;;;;;;;;;;;;18.27;100.00;147323.16;5053739;28;19959;-74
2022/08/27 06:10:52;;;;;;;;;;;;;;;17.95;100.00;147242.56;5053170;28;19959;-72
2022/08/27 06:13:17;;;;;;;;;;;;;;;17.84;100.00;147215.66;5052941;28;19917;-75
2022/08/27 06:15:43;;;;;;;;;;;;;;;17.51;100.00;112817.19;5053636;28;20594;-76
2022/08/27 06:18:08;;;;;;;;;;;;;;;17.40;100.00;79786.00;5053600;28;19947;-73
2022/08/27 06:20:33;;;;;;;;;;;;;;;17.26;100.00;58812.47;5055194;28;20368;-82
2022/08/27 06:22:59;;;;;;;;;;;;;;;17.31;100.00;40991.38;5054179;28;20262;-76
2022/08/27 06:25:24;;;;;;;;;;;;;;;17.22;100.00;30262.53;5053045;28;19917;-80
2022/08/27 06:27:49;;;;;;;;;;;;;;;17.07;100.00;22232.56;5053413;28;20569;-77
2022/08/27 06:30:14;;;;;;;;;;;;;;;17.14;100.00;15897.03;5053746;28;19936;-79
2022/08/27 06:32:40;;;;;;;;;;;;;;;17.19;100.00;11900.53;5053153;28;20464;-78
2022/08/27 06:35:05;;;;;;;;;;;;;;;17.13;100.00;10234.16;5053481;28;19921;-75
2022/08/27 06:37:31;;;;;;;;;;;;;;;17.19;100.00;6575.84;5053589;28;19923;-75
2022/08/27 06:39:56;;;;;;;;;;;;;;;17.21;100.00;3916.56;5052783;28;19924;-75
2022/08/27 06:42:22;;;;;;;;;;;;;;;17.21;100.00;5246.09;5052907;28;19920;-73
2022/08/27 06:44:47;;;;;;;;;;;;;;;17.36;100.00;4251.63;5052692;28;19967;-76
2022/08/27 06:47:13;;;;;;;;;;;;;;;17.41;100.00;4585.19;5053027;28;19960;-75
2022/08/27 06:49:39;;;;;;;;;;;;;;;17.46;100.00;6581.84;5053524;28;19921;-73
2022/08/27 06:52:05;;;;;;;;;;;;;;;17.48;100.00;5251.66;5053347;28;19920;-79
2022/08/27 06:54:31;;;;;;;;;;;;;;;17.54;100.00;4255.09;5052725;28;19917;-73
2022/08/27 06:56:57;;;;;;;;;;;;;;;17.61;100.00;5919.69;5052048;28;19952;-74
2022/08/27 06:59:23;;;;;;;;;;;;;;;17.77;100.00;7587.53;5053207;28;19979;-74
2022/08/27 07:01:50;;;;;;;;;;;;;;;17.91;100.00;8923.25;5052690;28;20377;-76
2022/08/27 07:04:19;;;;;;;;;;;;;;;18.01;100.00;9925.56;5052237;28;19923;-79
2022/08/27 07:06:44;;;;;;;;;;;;;;;17.83;100.00;15255.50;5053601;28;19959;-77
2022/08/27 07:09:10;;;;;;;;;;;;;;;17.83;100.00;16923.94;5052602;28;19956;-81
2022/08/27 07:11:35;;;;;;;;;;;;;;;17.82;100.00;18593.03;5052957;28;20019;-81
2022/08/27 07:14:00;;;;;;;;;;;;;;;17.98;100.00;18599.66;5053618;28;19938;-81
2022/08/27 07:16:26;;;;;;;;;;;;;;;18.05;100.00;20607.28;5053815;28;20327;-81
2022/08/27 07:18:53;;;;;;;;;;;;;;;18.11;100.00;18605.00;5054298;28;19923;-81
2022/08/27 07:21:19;;;;;;;;;;;;;;;18.13;100.00;16935.72;5054570;28;19925;-80
2022/08/27 07:23:44;;;;;;;;;;;;;;;18.08;100.00;15932.06;5055618;28;19936;-76
2022/08/27 07:26:11;;;;;;;;;;;;;;;18.27;100.00;16941.31;5052741;28;20015;-81
2022/08/27 07:28:36;;;;;;;;;;;;;;;18.22;100.00;22286.81;5053323;28;19916;-81
2022/08/27 07:31:02;;;;;;;;;;;;;;;18.35;100.00;25304.81;5053778;28;19963;-80
2022/08/27 07:33:28;;;;;;;;;;;;;;;18.19;100.00;31996.63;5053534;28;19920;-81
2022/08/27 07:35:53;;;;;;;;;;;;;;;18.40;100.00;34357.97;5053171;28;20327;-76
2022/08/27 07:38:19;;;;;;;;;;;;;;;18.42;100.00;38053.06;5053117;28;19948;-77
2022/08/27 07:40:44;;;;;;;;;;;;;;;18.57;100.00;42097.53;5052259;28;19947;-75
2022/08/27 07:45:59;;;;;;;;;;;;;;;19.07;100.00;60018.13;5054667;28;19970;-82
2022/08/27 07:48:25;;;;;;;;;;;;;;;19.39;100.00;74286.81;5053865;28;20429;-80
2022/08/27 07:50:51;;;;;;;;;;;;;;;19.59;100.00;122486.03;5053738;28;19960;-81
2022/08/27 07:53:19;;;;;;;;;;;;;;;19.74;100.00;147687.94;5053182;28;20383;-82
2022/08/27 07:55:44;;;;;;;;;;;;;;;19.51;100.00;147631.63;5053686;28;19974;-81
2022/08/27 07:58:10;;;;;;;;;;;;;;;19.47;100.00;147621.38;5053094;28;19943;-81
2022/08/27 08:00:36;;;;;;;;;;;;;;;19.52;100.00;147632.91;5053513;28;20358;-81
2022/08/27 08:03:04;;;;;;;;;;;;;;;19.43;100.00;147611.13;5052872;28;19917;-82
2022/08/27 08:05:29;;;;;;;;;;;;;;;19.51;100.00;147630.31;5053131;28;19936;-78
2022/08/27 08:07:55;;;;;;;;;;;;;;;19.80;100.00;147702.09;5051639;28;19933;-81
2022/08/27 08:10:23;;;;;;;;;;;;;;;19.60;100.00;147653.38;5053267;28;20074;-81
2022/08/27 08:12:59;;;;;;;;;;;;;;;19.50;100.00;147627.78;5052597;28;19916;-81
2022/08/27 08:15:25;;;;;;;;;;;;;;;19.53;100.00;147635.47;5053385;28;19917;-81
2022/08/27 08:17:50;;;;;;;;;;;;;;;19.70;100.00;147677.69;5053295;28;19974;-81
2022/08/27 08:20:16;;;;;;;;;;;;;;;19.73;100.00;147685.38;5035983;28;19921;-82
2022/08/27 08:22:42;;;;;;;;;;;;;;;19.65;100.00;147666.16;5053772;28;20365;-81
2022/08/27 08:25:07;;;;;;;;;;;;;;;19.55;100.00;147641.84;5052004;28;19923;-80
2022/08/27 08:27:32;;;;;;;;;;;;;;;19.89;100.00;147726.41;5052495;28;20343;-80
2022/08/27 08:29:58;;;;;;;;;;;;;;;20.24;100.00;147812.22;5052896;28;19912;-80
2022/08/27 08:32:23;;;;;;;;;;;;;;;19.91;100.00;147730.25;5052568;28;19921;-81
2022/08/27 08:34:49;;;;;;;;;;;;;;;20.30;100.00;147826.31;5052382;28;19916;-82
2022/08/27 08:37:15;;;;;;;;;;;;;;;20.22;100.00;147808.38;5052575;28;19928;-81
2022/08/27 08:39:40;;;;;;;;;;;;;;;20.56;100.00;147891.66;5052828;28;20026;-83
2022/08/27 08:42:06;;;;;;;;;;;;;;;20.77;100.00;147945.53;5053072;28;19985;-81
2022/08/27 08:44:34;;;;;;;;;;;;;;;20.62;100.00;147907.03;5052772;28;19927;-82
2022/08/27 08:47:08;;;;;;;;;;;;;;;21.06;100.00;148017.28;5052685;28;19970;-79
2022/08/27 08:49:37;;;;;;;;;;;;;;;21.13;100.00;148035.22;5053028;28;19913;-82
2022/08/27 08:52:23;;;;;;;;;;;;;;;20.68;100.00;147922.47;5052857;28;19924;-77
2022/08/27 08:54:49;;;;;;;;;;;;;;;20.83;100.00;147958.34;5052510;28;20077;-82
2022/08/27 08:57:28;;;;;;;;;;;;;;;20.81;100.00;147954.50;5050923;28;19944;-79
2022/08/27 09:00:00;;;;;;;;;;;;;;;20.83;100.00;147958.34;5050561;28;19959;-79
2022/08/27 09:02:26;;;;;;;;;;;;;;;20.79;100.00;147950.66;5051610;28;19928;-78
2022/08/27 09:04:52;;;;;;;;;;;;;;;20.80;100.00;147953.22;5051344;28;19917;-81
2022/08/27 09:07:21;;;;;;;;;;;;;;;20.62;100.00;147907.03;5051199;28;19917;-78
2022/08/27 09:09:46;;;;;;;;;;;;;;;20.57;100.00;147894.19;5051618;28;19913;-78
2022/08/27 09:12:23;;;;;;;;;;;;;;;20.45;100.00;147864.75;5052418;28;19921;-76
2022/08/27 09:14:58;;;;;;;;;;;;;;;20.66;100.00;147916.03;5051629;28;19930;-78
2022/08/27 09:17:24;;;;;;;;;;;;;;;20.56;100.00;147891.66;5051294;28;19924;-76
2022/08/27 09:19:49;;;;;;;;;;;;;;;20.39;100.00;147850.66;5051817;28;19913;-77
2022/08/27 09:22:16;;;;;;;;;;;;;;;20.45;100.00;147866.03;5052302;28;19917;-76
2022/08/27 09:24:51;;;;;;;;;;;;;;;20.59;100.00;147899.34;5051840;28;19917;-77
2022/08/27 09:27:18;;;;;;;;;;;;;;;21.22;100.00;148057.00;5051386;28;19918;-78
2022/08/27 09:29:48;;;;;;;;;;;;;;;21.21;100.00;148053.16;5052712;28;20384;-77
2022/08/27 09:32:13;;;;;;;;;;;;;;;21.31;100.00;148080.06;5050708;28;19979;-78
2022/08/27 09:34:40;;;;;;;;;;;;;;;21.52;100.00;148131.44;5051055;28;19952;-77
2022/08/27 09:37:09;;;;;;;;;;;;;;;21.34;100.00;148086.50;5053528;28;19913;-78
2022/08/27 09:39:55;;;;;;;;;;;;;;;21.18;100.00;148046.78;5051842;28;19971;-77
2022/08/27 09:42:36;;;;;;;;;;;;;;;21.22;100.00;148057.00;5057448;28;19992;-74
2022/08/27 09:45:13;;;;;;;;;;;;;;;21.56;100.00;148141.66;5057142;28;19917;-77
2022/08/27 09:47:43;;;;;;;;;;;;;;;21.89;100.00;148223.72;5059524;28;19916;-78
2022/08/27 09:50:08;;;;;;;;;;;;;;;22.02;100.00;148255.81;5057563;28;20055;-77
2022/08/27 09:52:47;;;;;;;;;;;;;;;22.04;100.00;148260.94;5056715;28;20012;-78
2022/08/27 09:55:24;;;;;;;;;;;;;;;21.61;100.00;148154.50;5057146;28;19924;-78
2022/08/27 09:57:50;;;;;;;;;;;;;;;21.12;100.00;148031.38;5057473;28;19923;-77
2022/08/27 10:00:16;;;;;;;;;;;;;;;20.86;100.00;147967.28;5058172;28;20007;-78
2022/08/27 10:02:51;;;;;;;;;;;;;;;21.04;100.00;148010.91;5057186;28;20042;-79
2022/08/27 10:05:23;;;;;;;;;;;;;;;20.89;100.00;147973.72;5057155;28;20393;-79
2022/08/27 10:07:53;;;;;;;;;;;;;;;20.98;100.00;147996.78;5059493;28;19923;-78
2022/08/27 10:10:22;;;;;;;;;;;;;;;20.90;100.00;147977.56;5058445;28;20448;-77
2022/08/27 10:12:57;;;;;;;;;;;;;;;20.79;100.00;147950.66;5059222;28;19970;-80
2022/08/27 10:15:27;;;;;;;;;;;;;;;20.69;100.00;147925.00;5058207;28;19916;-79
2022/08/27 10:17:55;;;;;;;;;;;;;;;20.75;100.00;147940.38;5057852;28;19928;-80
2022/08/27 10:20:39;;;;;;;;;;;;;;;20.68;100.00;147922.47;5057841;28;19917;-80
2022/08/27 10:23:25;;;;;;;;;;;;;;;20.62;100.00;147908.31;5059257;28;20007;-79
2022/08/27 10:25:59;;;;;;;;;;;;;;;20.66;100.00;147916.03;5059096;28;19956;-78
2022/08/27 10:28:27;;;;;;;;;;;;;;;20.91;100.00;147980.13;5058375;28;20273;-79
2022/08/27 10:31:05;;;;;;;;;;;;;;;21.08;100.00;148022.38;5057767;28;19920;-79
2022/08/27 10:33:34;;;;;;;;;;;;;;;20.82;100.00;147955.75;5057383;28;19921;-80
2022/08/27 10:36:03;;;;;;;;;;;;;;;20.58;100.00;147898.03;5058091;28;19917;-79
2022/08/27 10:38:40;;;;;;;;;;;;;;;20.57;100.00;147894.19;5058043;28;20285;-78
2022/08/27 10:41:16;;;;;;;;;;;;;;;20.69;100.00;147923.72;5057647;28;19916;-78
2022/08/27 10:44:01;;;;;;;;;;;;;;;21.07;100.00;148018.59;5057953;28;20274;-76
2022/08/27 10:46:41;;;;;;;;;;;;;;;21.01;100.00;148004.47;5057759;28;19917;-79
2022/08/27 10:49:13;;;;;;;;;;;;;;;21.04;100.00;148012.16;5054527;28;19960;-79
2022/08/27 10:52:01;;;;;;;;;;;;;;;21.57;100.00;148144.25;5054591;28;19920;-80
2022/08/27 10:54:44;;;;;;;;;;;;;;;21.55;100.00;148137.81;5055428;28;19917;-80
2022/08/27 10:57:19;;;;;;;;;;;;;;;21.13;100.00;148035.22;5055712;28;20289;-80
2022/08/27 10:59:52;;;;;;;;;;;;;;;20.92;100.00;147982.66;5053330;28;20066;-78
2022/08/27 11:02:18;;;;;;;;;;;;;;;20.76;100.00;147942.94;5053231;28;19924;-79
2022/08/27 11:04:48;;;;;;;;;;;;;;;20.76;100.00;147942.94;5054144;28;19917;-78
2022/08/27 11:07:22;;;;;;;;;;;;;;;21.00;100.00;148000.63;5054516;28;20000;-80
2022/08/27 11:09:47;;;;;;;;;;;;;;;20.98;100.00;147996.78;5053841;28;19935;-79
2022/08/27 11:12:16;;;;;;;;;;;;;;;20.74;100.00;147937.84;5055280;28;19924;-80
2022/08/27 11:14:53;;;;;;;;;;;;;;;20.73;100.00;147935.25;5054156;28;20313;-80
2022/08/27 11:17:27;;;;;;;;;;;;;;;20.84;100.00;147960.91;5056132;28;19916;-79
2022/08/27 11:20:09;;;;;;;;;;;;;;;20.91;100.00;147978.81;5055083;28;19912;-80
2022/08/27 11:22:46;;;;;;;;;;;;;;;20.93;100.00;147983.97;5054521;28;19923;-79
2022/08/27 11:25:25;;;;;;;;;;;;;;;20.99;100.00;147999.38;5054300;28;19981;-80
2022/08/27 11:27:52;;;;;;;;;;;;;;;21.11;100.00;148030.06;5053374;28;19940;-78
2022/08/27 11:30:33;;;;;;;;;;;;;;;21.04;100.00;148012.16;5055040;28;19914;-79
2022/08/27 11:33:01;;;;;;;;;;;;;;;21.12;100.00;148032.66;5056058;28;19921;-78
2022/08/27 11:35:26;;;;;;;;;;;;;;;21.02;100.00;148007.06;5055044;28;19943;-79
2022/08/27 11:38:27;;;;;;;;;;;;;;;20.88;100.00;147971.13;5053879;28;19917;-78
2022/08/27 11:41:07;;;;;;;;;;;;;;;20.85;100.00;147963.44;5053024;28;19917;-80
2022/08/27 11:43:35;;;;;;;;;;;;;;;20.77;100.00;147945.53;5051683;28;19924;-79
2022/08/27 11:46:05;;;;;;;;;;;;;;;20.82;100.00;147955.75;5052507;28;19917;-80
2022/08/27 11:48:33;;;;;;;;;;;;;;;20.75;100.00;147940.38;5050264;28;19943;-79
2022/08/27 11:51:08;;;;;;;;;;;;;;;20.74;100.00;147937.84;5053078;28;19986;-79
2022/08/27 11:53:38;;;;;;;;;;;;;;;20.92;100.00;147982.66;5053775;28;19933;-80
2022/08/27 11:56:14;;;;;;;;;;;;;;;20.78;100.00;147946.81;5047646;28;20015;-79
2022/08/27 11:58:40;;;;;;;;;;;;;;;20.67;100.00;147918.63;5054427;28;20373;-79
2022/08/27 12:01:13;;;;;;;;;;;;;;;20.93;100.00;147985.25;5055271;28;19924;-80
2022/08/27 12:03:39;;;;;;;;;;;;;;;20.70;100.00;147927.56;5054508;28;19944;-79
2022/08/27 12:06:08;;;;;;;;;;;;;;;20.89;100.00;147973.72;5055279;28;20281;-80
2022/08/27 12:08:34;;;;;;;;;;;;;;;21.14;100.00;148037.78;5053641;28;19921;-80
2022/08/27 12:11:11;;;;;;;;;;;;;;;21.07;100.00;148019.84;5054378;28;19960;-79
2022/08/27 12:13:49;;;;;;;;;;;;;;;20.94;100.00;147986.50;5051933;28;19916;-79
2022/08/27 12:16:17;;;;;;;;;;;;;;;21.15;100.00;148040.34;5052308;28;20653;-79
2022/08/27 12:18:54;;;;;;;;;;;;;;;20.71;100.00;147930.16;5053816;28;19920;-78
2022/08/27 12:21:38;;;;;;;;;;;;;;;20.91;100.00;147980.13;5052777;28;19924;-77
2022/08/27 12:24:12;;;;;;;;;;;;;;;21.21;100.00;148053.16;5053180;28;19960;-76
2022/08/27 12:26:40;;;;;;;;;;;;;;;21.55;100.00;148137.81;5053137;28;19916;-77
2022/08/27 12:29:24;;;;;;;;;;;;;;;21.68;100.00;148172.44;5052534;28;19924;-77
2022/08/27 12:31:53;;;;;;;;;;;;;;;21.45;100.00;148113.41;5052299;28;19917;-76
2022/08/27 12:34:21;;;;;;;;;;;;;;;21.37;100.00;148092.94;5052728;28;19966;-77
2022/08/27 12:36:47;;;;;;;;;;;;;;;21.27;100.00;148068.53;5053244;28;20270;-77
2022/08/27 12:39:17;;;;;;;;;;;;;;;21.45;100.00;148113.41;5051758;28;19920;-79
2022/08/27 12:41:44;;;;;;;;;;;;;;;21.55;100.00;148137.81;5053246;28;19936;-78